| Date | Time | Temp. (oF) | Dew Point (oF) | Rel. Hum. (%) | Press. (in.) | Wind Dir. | Wind Speed (mph) | Hourly Rainfall (in.) |
|
|---|---|---|---|---|---|---|---|---|---|
| 1 | 07/04 | 00:00 | 81 | 75 | 84 | 29.91 | WSW | 1 | 0.00 |
| 2 | 07/03 | 23:00 | 83 | 76 | 80 | 29.91 | W | 2 | 0.00 |
| 3 | 07/03 | 22:00 | 86 | 75 | 71 | 29.91 | W | 0 | 0.00 |
| 4 | 07/03 | 21:00 | 90 | 74 | 60 | 29.89 | W | 0 | 0.00 |
| 5 | 07/03 | 20:00 | 93 | 72 | 51 | 29.87 | W | 2 | 0.00 |
| 6 | 07/03 | 19:00 | 95 | 73 | 50 | 29.87 | NW | 2 | 0.00 |
| 7 | 07/03 | 18:00 | 96 | 72 | 47 | 29.87 | NW | 7 | 0.00 |
| 8 | 07/03 | 17:00 | 96 | 72 | 47 | 29.87 | WNW | 3 | 0.00 |
| 9 | 07/03 | 16:00 | 97 | 71 | 44 | 29.89 | SW | 4 | 0.00 |
| 10 | 07/03 | 15:00 | 97 | 73 | 47 | 29.91 | S | 6 | 0.00 |
| 11 | 07/03 | 14:00 | 96 | 73 | 49 | 29.92 | SW | 2 | 0.00 |
| 12 | 07/03 | 13:00 | 94 | 73 | 52 | 29.94 | WNW | 5 | 0.00 |
| 13 | 07/03 | 12:00 | 92 | 76 | 61 | 29.96 | W | 6 | 0.00 |
| 14 | 07/03 | 11:00 | 90 | 76 | 64 | 29.96 | NNW | 3 | 0.00 |
| 15 | 07/03 | 10:00 | 88 | 76 | 69 | 29.98 | W | 5 | 0.00 |
| 16 | 07/03 | 09:00 | 85 | 75 | 73 | 29.99 | WNW | 4 | 0.00 |
| 17 | 07/03 | 08:00 | 81 | 74 | 81 | 29.99 | W | 2 | 0.00 |
| 18 | 07/03 | 07:00 | 77 | 75 | 94 | 29.99 | WNW | 0 | 0.00 |
| 19 | 07/03 | 06:00 | 77 | 74 | 93 | 29.98 | WSW | 1 | 0.00 |
| 20 | 07/03 | 05:00 | 77 | 74 | 92 | 29.97 | SW | 1 | 0.00 |
| 21 | 07/03 | 04:00 | 78 | 74 | 90 | 29.97 | SW | 1 | 0.00 |
| 22 | 07/03 | 03:00 | 80 | 75 | 86 | 29.96 | SW | 1 | 0.00 |
| 23 | 07/03 | 02:00 | 82 | 75 | 82 | 29.96 | W | 0 | 0.00 |
| 24 | 07/03 | 01:00 | 82 | 75 | 81 | 29.96 | WSW | 2 | 0.00 |